Time;durP1;ratioP1;P1;durP2;ratioP2;P2;SDS_P1;SDS_P2;PMS_P1;PMS_P2;Temp;Humidity;BMP_temperature;BMP_pressure;BME280_temperature;BME280_humidity;BME280_pressure;Samples;Min_cycle;Max_cycle;Signal;HPM_P1;HPM_P2
2023/12/15 00:02:21;;;;;;;9.40;5.37;;;6.50;99.90;;;;;;5028084;28;20225;-70
2023/12/15 00:04:49;;;;;;;11.43;5.50;;;6.50;99.90;;;;;;5031399;28;20258;-70
2023/12/15 00:07:16;;;;;;;6.70;4.33;;;6.50;99.90;;;;;;5010353;28;20193;-70
2023/12/15 00:09:43;;;;;;;7.93;5.60;;;6.40;99.90;;;;;;5011577;28;20206;-69
2023/12/15 00:12:10;;;;;;;8.00;4.80;;;6.40;99.90;;;;;;5013605;28;20270;-69
2023/12/15 00:14:37;;;;;;;10.30;5.43;;;6.40;99.90;;;;;;5022591;28;20212;-69
2023/12/15 00:17:04;;;;;;;9.47;5.30;;;6.40;99.90;;;;;;5027624;28;20296;-69
2023/12/15 00:19:31;;;;;;;6.70;4.80;;;6.40;99.90;;;;;;5010794;28;20297;-69
2023/12/15 00:22:00;;;;;;;10.70;5.73;;;6.50;99.90;;;;;;5027683;28;20796;-70
2023/12/15 00:24:27;;;;;;;8.63;5.10;;;6.50;99.90;;;;;;5029546;28;20194;-69
2023/12/15 00:26:54;;;;;;;14.13;7.17;;;6.50;99.90;;;;;;5027562;28;20258;-70
2023/12/15 00:29:22;;;;;;;13.67;7.53;;;6.50;99.90;;;;;;5010857;28;20203;-70
2023/12/15 00:31:49;;;;;;;10.80;6.70;;;6.50;99.90;;;;;;5028274;28;20253;-69
2023/12/15 00:34:16;;;;;;;13.13;7.43;;;6.50;99.90;;;;;;5029285;28;20206;-70
2023/12/15 00:36:43;;;;;;;14.00;7.10;;;6.60;99.90;;;;;;5027699;28;20202;-70
2023/12/15 00:39:11;;;;;;;10.40;5.83;;;6.60;99.90;;;;;;5028876;28;20222;-70
2023/12/15 00:41:38;;;;;;;8.50;5.50;;;6.60;99.90;;;;;;5008290;28;20678;-70
2023/12/15 00:44:05;;;;;;;8.47;4.90;;;6.60;99.90;;;;;;5032967;28;20312;-70
2023/12/15 00:46:32;;;;;;;7.70;4.97;;;6.50;99.90;;;;;;5028482;28;20274;-70
2023/12/15 00:48:59;;;;;;;6.93;4.80;;;6.50;99.90;;;;;;5029284;28;20225;-69
2023/12/15 00:51:27;;;;;;;8.00;4.47;;;6.40;99.90;;;;;;5028189;28;20293;-71
2023/12/15 00:53:54;;;;;;;7.20;4.70;;;6.40;99.90;;;;;;5028894;28;20223;-69
2023/12/15 00:56:22;;;;;;;5.13;4.17;;;6.40;99.90;;;;;;5029937;28;20233;-70
2023/12/15 00:58:49;;;;;;;6.07;4.90;;;6.40;99.90;;;;;;5029080;28;20210;-70
2023/12/15 01:01:16;;;;;;;8.20;5.30;;;6.40;99.90;;;;;;5010534;28;20203;-70
2023/12/15 01:03:44;;;;;;;6.57;4.63;;;6.40;99.90;;;;;;5038718;28;20294;-70
2023/12/15 01:06:11;;;;;;;8.63;5.13;;;6.40;99.90;;;;;;5047950;28;20296;-70
2023/12/15 01:08:37;;;;;;;8.83;5.30;;;6.50;99.90;;;;;;5046949;28;20233;-70
2023/12/15 01:11:05;;;;;;;7.10;4.70;;;6.50;99.90;;;;;;5039180;28;20292;-70
2023/12/15 01:13:34;;;;;;;6.67;4.93;;;6.50;99.90;;;;;;5029671;28;20198;-70
2023/12/15 01:16:04;;;;;;;9.90;5.70;;;6.60;99.90;;;;;;5046469;28;20193;-70
2023/12/15 01:18:31;;;;;;;7.20;4.10;;;6.60;99.90;;;;;;5044775;28;20194;-70
2023/12/15 01:20:58;;;;;;;8.13;5.33;;;6.60;99.90;;;;;;5047533;28;20676;-70
2023/12/15 01:23:25;;;;;;;5.57;4.17;;;6.60;99.90;;;;;;5048125;28;20655;-70
2023/12/15 01:25:52;;;;;;;4.90;3.80;;;6.60;99.90;;;;;;5047541;28;20600;-70
2023/12/15 01:28:19;;;;;;;6.40;4.50;;;6.60;99.90;;;;;;5047674;28;20260;-70
2023/12/15 01:30:47;;;;;;;5.17;4.00;;;6.60;99.90;;;;;;5048034;28;20194;-70
2023/12/15 01:33:14;;;;;;;6.40;3.80;;;6.60;99.90;;;;;;5050838;28;20213;-70
2023/12/15 01:35:41;;;;;;;4.63;3.23;;;6.60;99.90;;;;;;5033357;28;20316;-70
2023/12/15 01:38:08;;;;;;;3.77;3.30;;;6.60;99.90;;;;;;5051327;28;20319;-70
2023/12/15 01:40:35;;;;;;;3.40;3.10;;;6.60;99.90;;;;;;5051639;28;20240;-70
2023/12/15 01:43:03;;;;;;;3.73;3.17;;;6.50;99.90;;;;;;5032421;28;20209;-70
2023/12/15 01:45:30;;;;;;;5.07;3.67;;;6.50;99.90;;;;;;5052067;28;20696;-70
2023/12/15 01:47:58;;;;;;;3.67;3.17;;;6.50;99.90;;;;;;5051731;28;20301;-69
2023/12/15 01:50:25;;;;;;;5.80;4.30;;;6.50;99.90;;;;;;5051410;28;20289;-69
2023/12/15 01:52:53;;;;;;;3.77;3.33;;;6.60;99.90;;;;;;5051040;28;20305;-69
2023/12/15 01:55:20;;;;;;;4.70;3.37;;;6.60;99.90;;;;;;5051348;28;20197;-69
2023/12/15 01:57:47;;;;;;;5.17;4.17;;;6.50;99.90;;;;;;5031026;28;20296;-69
2023/12/15 02:00:14;;;;;;;6.07;4.00;;;6.50;99.90;;;;;;5051257;28;20670;-69
2023/12/15 02:02:41;;;;;;;5.17;3.70;;;6.40;99.90;;;;;;5028453;28;20253;-69
2023/12/15 02:05:10;;;;;;;6.50;4.47;;;6.40;99.90;;;;;;5053433;28;20245;-69
2023/12/15 02:07:37;;;;;;;4.73;3.77;;;6.40;99.90;;;;;;5049348;28;20237;-70
2023/12/15 02:10:04;;;;;;;5.33;3.93;;;6.50;99.90;;;;;;5048124;28;20263;-70
2023/12/15 02:12:31;;;;;;;4.33;3.33;;;6.50;99.90;;;;;;5031353;28;20695;-70
2023/12/15 02:14:58;;;;;;;5.43;3.93;;;6.50;99.90;;;;;;5031788;28;20292;-70
2023/12/15 02:17:25;;;;;;;5.07;3.90;;;6.40;99.90;;;;;;5051123;28;20205;-70
2023/12/15 02:19:52;;;;;;;4.37;3.50;;;6.30;99.90;;;;;;5049517;28;20213;-69
2023/12/15 02:22:26;;;;;;;3.73;3.00;;;6.30;99.90;;;;;;5049497;28;20221;-70
2023/12/15 02:24:53;;;;;;;3.03;2.73;;;6.20;99.90;;;;;;5030990;28;20296;-70
2023/12/15 02:27:20;;;;;;;3.83;3.13;;;6.30;99.90;;;;;;5020757;28;20252;-70
2023/12/15 02:29:47;;;;;;;2.90;2.40;;;6.20;99.90;;;;;;5051058;28;20225;-70
2023/12/15 02:32:14;;;;;;;3.53;2.50;;;6.20;99.90;;;;;;5050257;28;20561;-70
2023/12/15 02:34:41;;;;;;;2.10;2.00;;;6.20;99.90;;;;;;5043129;28;20614;-70
2023/12/15 02:37:11;;;;;;;2.43;2.20;;;6.20;99.90;;;;;;5042808;28;20211;-70
2023/12/15 02:39:40;;;;;;;3.87;2.40;;;6.20;99.90;;;;;;5043274;28;20232;-70
2023/12/15 02:42:07;;;;;;;2.27;2.03;;;6.30;99.90;;;;;;5048712;28;20696;-70
2023/12/15 02:44:34;;;;;;;2.40;2.20;;;6.30;99.90;;;;;;5031605;28;20229;-69
2023/12/15 02:47:01;;;;;;;2.40;2.20;;;6.30;99.90;;;;;;5049991;28;20658;-69
2023/12/15 02:49:28;;;;;;;5.40;3.53;;;6.20;99.90;;;;;;5050347;28;20627;-69
2023/12/15 02:51:55;;;;;;;3.20;2.90;;;6.20;99.90;;;;;;5049810;28;20301;-69
2023/12/15 02:54:22;;;;;;;2.90;2.60;;;6.20;99.90;;;;;;5051068;28;20847;-68
2023/12/15 02:56:50;;;;;;;3.20;2.80;;;6.30;99.90;;;;;;5043819;28;20689;-69
2023/12/15 02:59:18;;;;;;;3.80;2.43;;;6.20;99.90;;;;;;5050768;28;20529;-69
2023/12/15 03:01:44;;;;;;;3.40;2.93;;;6.20;99.90;;;;;;5032214;28;20200;-69
2023/12/15 03:04:11;;;;;;;3.10;2.80;;;6.30;99.90;;;;;;5050004;28;20283;-69
2023/12/15 03:06:39;;;;;;;2.73;2.33;;;6.30;99.90;;;;;;5045719;28;20193;-69
2023/12/15 03:09:06;;;;;;;3.97;2.80;;;6.30;99.90;;;;;;5030939;28;20206;-69
2023/12/15 03:11:33;;;;;;;3.30;2.80;;;6.20;99.90;;;;;;5048646;28;20213;-68
2023/12/15 03:14:01;;;;;;;4.10;3.37;;;6.20;99.90;;;;;;5048618;28;20232;-70
2023/12/15 03:16:30;;;;;;;4.43;3.63;;;6.30;99.90;;;;;;5050033;28;20198;-69
2023/12/15 03:18:57;;;;;;;3.23;2.93;;;6.30;99.90;;;;;;5013004;28;20662;-69
2023/12/15 03:21:24;;;;;;;4.83;2.93;;;6.20;99.90;;;;;;5014614;28;20230;-69
2023/12/15 03:23:51;;;;;;;4.60;3.00;;;6.20;99.90;;;;;;5012548;28;20221;-69
2023/12/15 03:26:18;;;;;;;3.03;2.17;;;6.80;99.90;;;;;;5035902;28;20277;-68
2023/12/15 03:28:45;;;;;;;2.70;2.50;;;6.20;99.90;;;;;;5056669;28;20308;-69
2023/12/15 03:31:13;;;;;;;4.27;2.70;;;6.20;99.90;;;;;;5069633;28;20315;-70
2023/12/15 03:33:40;;;;;;;2.80;2.53;;;6.60;99.90;;;;;;5065787;28;20244;-69
2023/12/15 03:36:08;;;;;;;2.50;2.30;;;6.20;99.90;;;;;;5069115;28;20223;-70
2023/12/15 03:38:36;;;;;;;3.30;2.90;;;6.20;99.90;;;;;;5069292;28;20274;-70
2023/12/15 03:41:03;;;;;;;2.60;2.20;;;6.20;99.90;;;;;;5068717;28;20259;-70
2023/12/15 03:43:30;;;;;;;3.13;2.40;;;6.20;99.90;;;;;;5068800;28;20211;-70
2023/12/15 03:45:57;;;;;;;4.80;3.00;;;6.20;99.90;;;;;;5069398;28;20219;-70
2023/12/15 03:48:25;;;;;;;4.33;2.80;;;6.10;99.90;;;;;;5069766;28;20656;-70
2023/12/15 03:50:52;;;;;;;3.33;2.40;;;6.10;99.90;;;;;;5068888;28;20276;-70
2023/12/15 03:53:19;;;;;;;2.20;2.00;;;6.20;99.90;;;;;;5066568;28;20663;-70
2023/12/15 03:55:46;;;;;;;2.17;1.97;;;6.10;99.90;;;;;;5069306;28;20207;-71
2023/12/15 03:58:15;;;;;;;1.73;1.63;;;6.10;99.90;;;;;;5069206;28;20200;-71
2023/12/15 04:00:42;;;;;;;4.07;2.50;;;6.10;99.90;;;;;;5069850;28;20201;-71
2023/12/15 04:03:09;;;;;;;2.40;2.20;;;6.10;99.90;;;;;;5047845;28;20395;-70
2023/12/15 04:05:39;;;;;;;4.90;2.60;;;6.10;99.90;;;;;;5066826;28;20197;-69
2023/12/15 04:08:06;;;;;;;5.23;3.57;;;6.20;99.90;;;;;;5057455;28;20194;-70
2023/12/15 04:10:33;;;;;;;5.27;3.20;;;6.20;99.90;;;;;;5063566;28;20216;-70
2023/12/15 04:13:01;;;;;;;4.30;2.67;;;6.20;99.90;;;;;;5068497;28;20241;-70
2023/12/15 04:15:28;;;;;;;5.90;3.13;;;6.10;99.90;;;;;;5069398;28;20284;-70
2023/12/15 04:17:55;;;;;;;5.87;3.77;;;6.10;99.90;;;;;;5069373;28;20278;-69
2023/12/15 04:20:22;;;;;;;7.10;3.80;;;6.10;99.90;;;;;;5069128;28;20220;-69
2023/12/15 04:22:51;;;;;;;7.53;4.13;;;6.00;99.90;;;;;;5069086;28;20192;-71
2023/12/15 04:25:18;;;;;;;5.50;4.00;;;6.10;99.90;;;;;;5069812;28;20271;-70
2023/12/15 04:27:45;;;;;;;8.73;4.70;;;6.00;99.90;;;;;;5067952;28;20725;-70
2023/12/15 04:30:13;;;;;;;7.93;4.40;;;6.00;99.90;;;;;;5062059;28;20298;-70
2023/12/15 04:32:40;;;;;;;6.63;3.90;;;6.00;99.90;;;;;;5068214;28;20219;-70
2023/12/15 04:35:08;;;;;;;5.67;3.67;;;6.00;99.90;;;;;;5069143;28;20203;-70
2023/12/15 04:37:35;;;;;;;4.47;3.10;;;6.00;99.90;;;;;;5068927;28;20197;-70
2023/12/15 04:40:07;;;;;;;6.13;3.50;;;6.00;99.90;;;;;;5068851;28;20269;-70
2023/12/15 04:42:34;;;;;;;6.90;3.83;;;6.00;99.90;;;;;;5067705;28;20194;-69
2023/12/15 04:45:01;;;;;;;4.20;3.30;;;6.00;99.90;;;;;;5065900;28;20562;-70
2023/12/15 04:47:28;;;;;;;4.63;2.70;;;6.10;99.90;;;;;;5069427;28;20204;-70
2023/12/15 04:49:56;;;;;;;5.10;2.97;;;6.10;99.90;;;;;;5070596;28;20192;-70
2023/12/15 04:52:23;;;;;;;3.73;2.70;;;6.10;99.90;;;;;;5052003;28;20282;-69
2023/12/15 04:54:50;;;;;;;4.00;3.00;;;6.10;99.90;;;;;;5070380;28;20979;-70
2023/12/15 04:57:19;;;;;;;5.20;3.30;;;6.00;99.90;;;;;;5068394;28;20193;-70
2023/12/15 04:59:46;;;;;;;4.03;2.80;;;6.00;99.90;;;;;;5070505;28;20350;-69
2023/12/15 05:02:13;;;;;;;2.40;2.20;;;6.00;99.90;;;;;;5067354;28;20278;-69
2023/12/15 05:04:46;;;;;;;3.77;2.80;;;5.90;99.90;;;;;;5069932;28;20370;-68
2023/12/15 05:07:16;;;;;;;3.37;2.60;;;5.80;99.90;;;;;;5045773;28;20251;-70
2023/12/15 05:09:43;;;;;;;5.07;3.43;;;6.00;99.90;;;;;;5065226;28;20540;-69
2023/12/15 05:12:13;;;;;;;3.27;2.90;;;6.00;99.90;;;;;;5069576;28;20321;-70
2023/12/15 05:14:44;;;;;;;2.83;2.43;;;6.00;99.90;;;;;;5073309;28;20227;-69
2023/12/15 05:17:12;;;;;;;4.33;3.17;;;6.00;99.90;;;;;;5075619;28;20201;-70
2023/12/15 05:19:39;;;;;;;3.47;2.97;;;6.00;99.90;;;;;;5075366;28;20279;-68
2023/12/15 05:22:07;;;;;;;4.20;2.90;;;6.00;99.90;;;;;;5074220;28;20195;-70
2023/12/15 05:24:34;;;;;;;3.23;2.77;;;6.00;99.90;;;;;;5076180;28;20217;-69
2023/12/15 05:27:01;;;;;;;4.07;2.93;;;6.00;99.90;;;;;;5072409;28;20215;-70
2023/12/15 05:29:28;;;;;;;4.90;3.50;;;6.00;99.90;;;;;;5074721;28;20728;-70
2023/12/15 05:31:57;;;;;;;4.23;3.30;;;6.00;99.90;;;;;;5072395;28;20293;-70
2023/12/15 05:34:24;;;;;;;4.20;3.57;;;6.00;99.90;;;;;;5072942;28;20282;-70
2023/12/15 05:36:51;;;;;;;3.87;2.97;;;6.00;99.90;;;;;;5071889;28;20228;-71
2023/12/15 05:39:18;;;;;;;4.13;3.40;;;6.00;99.90;;;;;;5071409;28;20298;-70
2023/12/15 05:41:45;;;;;;;5.63;3.70;;;6.00;99.90;;;;;;5051692;28;20739;-71
2023/12/15 05:44:12;;;;;;;5.10;3.53;;;6.00;99.90;;;;;;5072600;28;20196;-70
2023/12/15 05:46:42;;;;;;;3.93;3.27;;;6.00;99.90;;;;;;5072042;28;20203;-70
2023/12/15 05:49:11;;;;;;;5.80;3.87;;;6.00;99.90;;;;;;5072077;28;20289;-70
2023/12/15 05:51:41;;;;;;;6.20;3.83;;;5.90;99.90;;;;;;5053143;28;20216;-69
2023/12/15 05:54:08;;;;;;;4.10;3.60;;;5.90;99.90;;;;;;5071456;28;20207;-69
2023/12/15 05:56:35;;;;;;;3.73;3.20;;;6.00;99.90;;;;;;5070401;28;20222;-69
2023/12/15 05:59:02;;;;;;;3.60;3.10;;;6.00;99.90;;;;;;5053547;28;20201;-70
2023/12/15 06:01:29;;;;;;;3.23;2.93;;;6.00;99.90;;;;;;5071647;28;20678;-70
2023/12/15 06:03:57;;;;;;;3.17;2.87;;;6.00;99.90;;;;;;5071490;28;20246;-70
2023/12/15 06:06:25;;;;;;;2.77;2.50;;;5.90;99.90;;;;;;5071128;28;20206;-70
2023/12/15 06:08:53;;;;;;;5.90;3.60;;;5.90;99.90;;;;;;5063818;28;20193;-71
2023/12/15 06:11:20;;;;;;;5.33;3.80;;;5.90;99.90;;;;;;5066276;28;20560;-71
2023/12/15 06:13:50;;;;;;;5.87;4.07;;;5.90;99.90;;;;;;5070534;28;20300;-71
2023/12/15 06:16:22;;;;;;;3.40;3.10;;;6.00;99.90;;;;;;5072302;28;20198;-70
2023/12/15 06:18:49;;;;;;;4.83;3.40;;;5.80;99.90;;;;;;5069175;28;20292;-70
2023/12/15 06:21:25;;;;;;;4.43;4.03;;;5.90;99.90;;;;;;5050227;28;20197;-69
2023/12/15 06:23:52;;;;;;;3.53;3.23;;;5.90;99.90;;;;;;5069209;28;20200;-70
2023/12/15 06:26:20;;;;;;;4.90;3.73;;;5.90;99.90;;;;;;5070607;28;20283;-71
2023/12/15 06:28:47;;;;;;;4.93;3.57;;;5.90;99.90;;;;;;5070463;28;20548;-69
2023/12/15 06:31:15;;;;;;;5.03;4.00;;;5.90;99.90;;;;;;5071341;28;20210;-70
2023/12/15 06:33:42;;;;;;;8.13;4.50;;;5.90;99.90;;;;;;5052572;28;20220;-70
2023/12/15 06:36:10;;;;;;;5.30;4.17;;;6.00;99.90;;;;;;5070698;28;20294;-70
2023/12/15 06:38:44;;;;;;;5.40;3.90;;;5.90;99.90;;;;;;5040886;28;20670;-70
2023/12/15 06:41:11;;;;;;;4.60;3.70;;;5.90;99.90;;;;;;5070620;28;20193;-70
2023/12/15 06:43:40;;;;;;;4.43;3.33;;;5.90;99.90;;;;;;5070434;28;20197;-69
2023/12/15 06:46:07;;;;;;;3.50;3.20;;;6.00;99.90;;;;;;5071035;28;20319;-70
2023/12/15 06:48:38;;;;;;;3.43;3.13;;;5.90;99.90;;;;;;5070840;28;20271;-70
2023/12/15 06:51:06;;;;;;;3.63;3.30;;;5.90;99.90;;;;;;5070599;28;20201;-70
2023/12/15 06:53:33;;;;;;;3.53;3.23;;;5.90;99.90;;;;;;5070346;28;20263;-70
2023/12/15 06:56:03;;;;;;;3.40;3.10;;;5.90;99.90;;;;;;5069955;28;20206;-69
2023/12/15 06:58:30;;;;;;;4.10;3.07;;;5.90;99.90;;;;;;5069989;28;20612;-70
2023/12/15 07:00:57;;;;;;;3.17;2.87;;;5.90;99.90;;;;;;5070857;28;20541;-70
2023/12/15 07:03:24;;;;;;;2.70;2.50;;;5.90;99.90;;;;;;5059370;28;20549;-69
2023/12/15 07:05:51;;;;;;;3.50;3.20;;;5.20;99.90;;;;;;5052528;28;20197;-71
2023/12/15 07:08:18;;;;;;;3.30;2.90;;;5.80;99.90;;;;;;5053455;28;20232;-70
2023/12/15 07:10:46;;;;;;;3.77;3.37;;;5.80;99.90;;;;;;5050075;28;20200;-70
2023/12/15 07:13:14;;;;;;;4.33;3.70;;;5.80;99.90;;;;;;5067385;28;20666;-70
2023/12/15 07:15:41;;;;;;;4.37;3.87;;;5.70;99.90;;;;;;5046017;28;20288;-69
2023/12/15 07:18:08;;;;;;;4.73;3.90;;;5.80;99.90;;;;;;5057967;28;20265;-70
2023/12/15 07:20:36;;;;;;;4.63;3.70;;;5.80;99.90;;;;;;5049454;28;20215;-70
2023/12/15 07:23:03;;;;;;;4.70;3.90;;;5.80;99.90;;;;;;5065140;28;20226;-69
2023/12/15 07:25:30;;;;;;;4.43;3.63;;;5.80;99.90;;;;;;5048279;28;20207;-70
2023/12/15 07:27:57;;;;;;;4.97;3.97;;;5.80;99.90;;;;;;5060339;28;20197;-69
2023/12/15 07:30:27;;;;;;;5.40;4.00;;;5.80;99.90;;;;;;5048618;28;20197;-69
2023/12/15 07:32:54;;;;;;;6.50;4.60;;;5.80;99.90;;;;;;5062048;28;20208;-69
2023/12/15 07:35:21;;;;;;;5.23;4.30;;;5.80;99.90;;;;;;5065615;28;20219;-68
2023/12/15 07:37:48;;;;;;;5.20;4.00;;;5.80;99.90;;;;;;5043299;28;20682;-70
2023/12/15 07:40:16;;;;;;;10.93;4.60;;;5.80;99.90;;;;;;5064533;28;20263;-70
2023/12/15 07:42:43;;;;;;;6.30;3.87;;;5.80;99.90;;;;;;5062217;28;20216;-69
2023/12/15 07:45:12;;;;;;;6.13;3.90;;;5.80;99.90;;;;;;5057869;28;20208;-70
2023/12/15 07:47:40;;;;;;;5.10;3.43;;;5.80;99.90;;;;;;5065388;28;20202;-70
2023/12/15 07:50:11;;;;;;;5.77;4.07;;;5.80;99.90;;;;;;5068443;28;20616;-70
2023/12/15 07:52:38;;;;;;;5.13;3.70;;;5.90;99.90;;;;;;5058319;28;20673;-70
2023/12/15 07:55:06;;;;;;;4.77;3.50;;;5.90;99.90;;;;;;5062086;28;20212;-70
2023/12/15 07:57:33;;;;;;;6.00;3.30;;;5.90;99.90;;;;;;5044871;28;20201;-69
2023/12/15 08:00:00;;;;;;;3.63;3.20;;;6.00;99.90;;;;;;5069029;28;20227;-69
2023/12/15 08:02:27;;;;;;;5.53;3.43;;;6.00;99.90;;;;;;5067186;28;20501;-69
2023/12/15 08:04:56;;;;;;;5.00;3.00;;;6.10;99.90;;;;;;5059042;28;20200;-70
2023/12/15 08:07:23;;;;;;;5.10;3.07;;;6.10;99.90;;;;;;5047698;28;20185;-69
2023/12/15 08:09:50;;;;;;;4.53;3.23;;;6.00;99.90;;;;;;5056812;28;20648;-70
2023/12/15 08:12:17;;;;;;;3.37;3.07;;;6.10;99.90;;;;;;5039584;28;20274;-70
2023/12/15 08:14:44;;;;;;;3.80;3.10;;;6.10;99.90;;;;;;5059625;28;20248;-69
2023/12/15 08:17:12;;;;;;;3.93;2.93;;;6.00;99.90;;;;;;5059437;28;20283;-70
2023/12/15 08:19:40;;;;;;;3.73;3.23;;;6.00;99.90;;;;;;5061788;28;20192;-70
2023/12/15 08:22:09;;;;;;;4.03;3.30;;;6.10;99.90;;;;;;5064965;28;20211;-69
2023/12/15 08:24:36;;;;;;;4.33;3.50;;;6.10;99.90;;;;;;5046928;28;20224;-69
2023/12/15 08:27:04;;;;;;;3.17;2.87;;;6.10;99.90;;;;;;5062036;28;20262;-70
2023/12/15 08:29:31;;;;;;;3.50;2.73;;;6.10;99.90;;;;;;5048091;28;20196;-70
2023/12/15 08:32:00;;;;;;;4.27;3.50;;;6.10;99.90;;;;;;5065255;28;20212;-68
2023/12/15 08:34:27;;;;;;;4.80;3.17;;;6.10;99.90;;;;;;5062820;28;20203;-69
2023/12/15 08:36:55;;;;;;;3.83;3.03;;;6.10;99.90;;;;;;5067067;28;20272;-69
2023/12/15 08:39:23;;;;;;;4.37;3.40;;;6.10;99.90;;;;;;5062411;28;20581;-70
2023/12/15 08:41:50;;;;;;;5.97;3.53;;;6.10;99.90;;;;;;5059071;28;20207;-70
2023/12/15 08:44:17;;;;;;;5.37;3.90;;;6.10;99.90;;;;;;5050627;28;20193;-70
2023/12/15 08:46:44;;;;;;;7.27;4.50;;;6.10;99.90;;;;;;5071351;28;20345;-70
2023/12/15 08:49:13;;;;;;;7.47;4.53;;;6.10;99.90;;;;;;5047919;28;20231;-69
2023/12/15 08:51:40;;;;;;;8.77;4.67;;;6.10;99.90;;;;;;5071534;28;20589;-69
2023/12/15 08:54:07;;;;;;;5.97;4.17;;;6.20;99.90;;;;;;5071041;28;20221;-69
2023/12/15 08:56:39;;;;;;;5.40;4.47;;;6.80;99.90;;;;;;5068260;28;20286;-69
2023/12/15 08:59:07;;;;;;;5.67;4.43;;;6.20;99.90;;;;;;5070317;28;20199;-69
2023/12/15 09:01:34;;;;;;;5.87;3.97;;;6.20;99.90;;;;;;5070904;28;20258;-69
2023/12/15 09:04:01;;;;;;;8.40;4.33;;;6.10;99.90;;;;;;5065357;28;20294;-69
2023/12/15 09:06:28;;;;;;;4.90;3.50;;;6.10;99.90;;;;;;5068805;28;20194;-70
2023/12/15 09:08:55;;;;;;;3.80;3.00;;;6.10;99.90;;;;;;5061709;28;20247;-69
2023/12/15 09:11:22;;;;;;;5.57;3.27;;;6.20;99.90;;;;;;5053694;28;20223;-69
2023/12/15 09:13:51;;;;;;;5.20;3.60;;;6.20;99.90;;;;;;5066065;28;20244;-68
2023/12/15 09:16:18;;;;;;;6.40;4.10;;;6.20;99.90;;;;;;5070082;28;20197;-69
2023/12/15 09:18:45;;;;;;;6.57;4.57;;;6.20;99.90;;;;;;5067952;28;20268;-69
2023/12/15 09:21:15;;;;;;;6.90;4.00;;;6.30;99.90;;;;;;5052104;28;20259;-69
2023/12/15 09:23:42;;;;;;;5.77;3.97;;;6.40;99.90;;;;;;5066221;28;20232;-69
2023/12/15 09:26:09;;;;;;;6.27;3.90;;;6.40;99.90;;;;;;5050622;28;20260;-68
2023/12/15 09:28:36;;;;;;;6.07;3.67;;;6.40;99.90;;;;;;5047350;28;20348;-70
2023/12/15 09:31:05;;;;;;;7.67;3.83;;;6.40;99.90;;;;;;5069059;28;20197;-69
2023/12/15 09:33:33;;;;;;;4.50;3.47;;;6.30;99.90;;;;;;5070004;28;20764;-70
2023/12/15 09:36:00;;;;;;;3.57;2.90;;;6.30;99.90;;;;;;5069805;28;20268;-70
2023/12/15 09:38:27;;;;;;;3.93;3.50;;;6.20;99.90;;;;;;5069129;28;20566;-70
2023/12/15 09:40:54;;;;;;;3.67;2.87;;;6.40;99.90;;;;;;5068638;28;20948;-68
2023/12/15 09:43:21;;;;;;;4.80;3.30;;;6.40;99.90;;;;;;5048499;28;20235;-70
2023/12/15 09:45:48;;;;;;;4.37;3.10;;;6.50;99.90;;;;;;5069515;28;20691;-70
2023/12/15 09:48:17;;;;;;;6.13;2.83;;;6.50;99.90;;;;;;5069135;28;20657;-70
2023/12/15 09:50:51;;;;;;;3.00;2.70;;;6.50;99.90;;;;;;5069499;28;20248;-69
2023/12/15 09:53:19;;;;;;;3.87;3.03;;;6.50;99.90;;;;;;5065503;28;20196;-70
2023/12/15 09:55:47;;;;;;;3.30;3.00;;;6.50;99.90;;;;;;5067772;28;20196;-70
2023/12/15 09:58:14;;;;;;;4.07;2.70;;;6.50;99.90;;;;;;5068692;28;20216;-70
2023/12/15 10:00:41;;;;;;;4.27;2.87;;;6.60;99.90;;;;;;5069489;28;20224;-68
2023/12/15 10:03:08;;;;;;;3.20;2.70;;;6.60;99.90;;;;;;5068505;28;20330;-69
2023/12/15 10:05:37;;;;;;;4.47;3.00;;;6.70;99.90;;;;;;5058232;28;20746;-69
2023/12/15 10:08:05;;;;;;;5.30;3.60;;;6.80;99.90;;;;;;5064191;28;20213;-69
2023/12/15 10:10:32;;;;;;;4.67;3.30;;;6.80;99.90;;;;;;5062129;28;20238;-69
2023/12/15 10:12:59;;;;;;;5.80;3.13;;;6.90;99.90;;;;;;5062853;28;20257;-68
2023/12/15 10:15:26;;;;;;;5.00;3.60;;;6.90;99.90;;;;;;5063390;28;20309;-69
2023/12/15 10:17:53;;;;;;;4.33;2.53;;;6.90;99.90;;;;;;5068678;28;20282;-70
2023/12/15 10:20:21;;;;;;;2.93;2.43;;;7.00;99.90;;;;;;5044157;28;20281;-70
2023/12/15 10:23:00;;;;;;;3.07;2.50;;;6.90;99.90;;;;;;5068205;28;20198;-69
2023/12/15 10:25:27;;;;;;;3.73;2.50;;;7.00;99.90;;;;;;5064955;28;20197;-70
2023/12/15 10:27:54;;;;;;;4.87;3.20;;;7.00;99.90;;;;;;5067212;28;20201;-69
2023/12/15 10:30:21;;;;;;;2.97;2.77;;;7.00;99.90;;;;;;5064248;28;20283;-69
2023/12/15 10:32:48;;;;;;;3.17;2.63;;;6.90;99.90;;;;;;5068842;28;20206;-69
2023/12/15 10:35:17;;;;;;;3.07;2.67;;;7.00;99.90;;;;;;5068757;28;20244;-70
2023/12/15 10:37:45;;;;;;;2.10;2.00;;;7.00;99.90;;;;;;5050752;28;20205;-69
2023/12/15 10:40:15;;;;;;;2.20;2.00;;;6.90;99.90;;;;;;5069025;28;20591;-69
2023/12/15 10:42:43;;;;;;;2.53;2.33;;;6.90;99.90;;;;;;5063159;28;20573;-69
2023/12/15 10:45:11;;;;;;;1.90;1.70;;;6.80;99.90;;;;;;5060980;28;20193;-69
2023/12/15 10:47:40;;;;;;;2.57;2.30;;;6.80;99.90;;;;;;5068437;28;20197;-70
2023/12/15 10:50:09;;;;;;;2.60;1.93;;;6.80;99.90;;;;;;5049927;28;20201;-69
2023/12/15 10:52:37;;;;;;;3.33;2.30;;;6.80;99.90;;;;;;5068925;28;20712;-70
2023/12/15 10:55:06;;;;;;;3.17;2.50;;;6.80;99.90;;;;;;5062396;28;20668;-69
2023/12/15 10:57:34;;;;;;;2.20;2.10;;;6.80;99.90;;;;;;5050242;28;20232;-70
2023/12/15 11:00:03;;;;;;;3.73;2.50;;;6.90;99.90;;;;;;5040201;28;20204;-69
2023/12/15 11:02:32;;;;;;;2.67;2.30;;;6.90;99.90;;;;;;5063672;28;20591;-69
2023/12/15 11:04:59;;;;;;;2.10;1.90;;;6.90;99.90;;;;;;5055191;28;20265;-70
2023/12/15 11:07:31;;;;;;;4.13;2.50;;;6.90;99.90;;;;;;5065131;28;20223;-69
2023/12/15 11:09:59;;;;;;;2.37;2.13;;;6.90;99.90;;;;;;5043895;28;20266;-70
2023/12/15 11:12:31;;;;;;;2.30;2.10;;;6.90;99.90;;;;;;5048617;28;20686;-70
2023/12/15 11:15:04;;;;;;;4.33;3.10;;;6.90;99.90;;;;;;5061512;28;20217;-70
2023/12/15 11:17:32;;;;;;;4.80;2.53;;;6.90;99.90;;;;;;5067905;28;20288;-70
2023/12/15 11:20:06;;;;;;;3.87;2.47;;;6.90;99.90;;;;;;5065832;28;20273;-69
2023/12/15 11:22:43;;;;;;;4.30;2.93;;;6.90;99.90;;;;;;5064775;28;20201;-69
2023/12/15 11:25:19;;;;;;;3.37;2.87;;;6.80;99.90;;;;;;5066808;28;20192;-70
2023/12/15 11:27:59;;;;;;;3.57;2.37;;;6.80;99.90;;;;;;5066583;28;20267;-70
2023/12/15 11:30:36;;;;;;;2.93;2.63;;;6.70;99.90;;;;;;5060463;28;20289;-69
2023/12/15 11:33:33;;;;;;;2.03;1.83;;;6.70;99.90;;;;;;5061738;28;20304;-69
2023/12/15 11:36:02;;;;;;;5.37;2.57;;;6.70;99.90;;;;;;5021016;28;20232;-69
2023/12/15 11:38:29;;;;;;;3.63;2.40;;;6.70;99.90;;;;;;5065979;28;20273;-69
2023/12/15 11:40:57;;;;;;;3.43;3.00;;;6.70;99.90;;;;;;5046609;28;20636;-69
2023/12/15 11:43:25;;;;;;;2.93;2.60;;;6.60;99.90;;;;;;5050019;28;20209;-68
2023/12/15 11:45:54;;;;;;;7.73;3.53;;;6.60;99.90;;;;;;5067224;28;20304;-68
2023/12/15 11:48:23;;;;;;;3.53;2.70;;;6.60;99.90;;;;;;5068158;28;20189;-69
2023/12/15 11:50:51;;;;;;;3.37;2.97;;;6.70;99.90;;;;;;5067824;28;20197;-68
2023/12/15 11:53:19;;;;;;;3.43;2.23;;;6.60;99.90;;;;;;5068154;28;20684;-68
2023/12/15 11:55:49;;;;;;;2.00;1.90;;;6.60;99.90;;;;;;5041756;28;20262;-70
2023/12/15 11:58:18;;;;;;;2.60;2.07;;;6.60;99.90;;;;;;5066949;28;20205;-69
2023/12/15 12:00:45;;;;;;;2.70;1.90;;;6.60;99.90;;;;;;5043221;28;20201;-70
2023/12/15 12:03:15;;;;;;;2.00;1.80;;;6.60;99.90;;;;;;5067919;28;20225;-69
2023/12/15 12:05:42;;;;;;;2.20;1.83;;;6.70;99.90;;;;;;5063228;28;20224;-70
2023/12/15 12:08:10;;;;;;;2.50;2.00;;;6.70;99.90;;;;;;5062846;28;20203;-69
2023/12/15 12:10:39;;;;;;;3.63;2.87;;;6.70;99.90;;;;;;5037763;28;20288;-69
2023/12/15 12:13:10;;;;;;;2.60;2.40;;;6.70;99.90;;;;;;5065838;28;20243;-70
2023/12/15 12:15:54;;;;;;;2.43;2.23;;;6.80;99.90;;;;;;5065700;28;20205;-69
2023/12/15 12:18:24;;;;;;;3.50;2.70;;;6.80;99.90;;;;;;5064897;28;20567;-69
2023/12/15 12:20:57;;;;;;;4.60;3.07;;;6.80;99.90;;;;;;5067245;28;20193;-70
2023/12/15 12:23:24;;;;;;;4.20;3.40;;;7.40;99.90;;;;;;5052349;28;20538;-70
2023/12/15 12:25:52;;;;;;;4.30;3.30;;;6.80;99.90;;;;;;5061654;28;20197;-70
2023/12/15 12:28:20;;;;;;;4.10;2.97;;;6.80;99.90;;;;;;5049748;28;20205;-69
2023/12/15 12:30:49;;;;;;;7.53;5.03;;;6.80;99.90;;;;;;5049036;28;20220;-69
2023/12/15 12:33:16;;;;;;;5.93;4.50;;;6.80;99.90;;;;;;5068257;28;20292;-70
2023/12/15 12:35:45;;;;;;;6.20;4.53;;;6.80;99.90;;;;;;5068279;28;20759;-69
2023/12/15 12:38:12;;;;;;;5.93;4.33;;;6.80;99.90;;;;;;5067804;28;20607;-69
2023/12/15 12:40:39;;;;;;;7.63;4.73;;;6.90;99.90;;;;;;5067232;28;20201;-68
2023/12/15 12:43:06;;;;;;;8.83;5.37;;;6.90;99.90;;;;;;5067245;28;20741;-70
2023/12/15 12:45:33;;;;;;;7.63;4.90;;;6.90;99.90;;;;;;5060184;28;20196;-69
2023/12/15 12:48:00;;;;;;;9.13;5.47;;;6.90;99.90;;;;;;5047324;28;20197;-70
2023/12/15 12:50:27;;;;;;;7.20;5.20;;;6.90;99.90;;;;;;5041703;28;20255;-69
2023/12/15 12:52:59;;;;;;;6.40;4.83;;;6.90;99.90;;;;;;5068192;28;20251;-70
2023/12/15 12:55:32;;;;;;;8.27;5.00;;;7.00;99.90;;;;;;5063325;28;20240;-69
2023/12/15 12:58:02;;;;;;;8.47;5.70;;;6.90;99.90;;;;;;5066612;28;20193;-69
2023/12/15 13:00:29;;;;;;;6.13;4.70;;;6.90;99.90;;;;;;5046530;28;20202;-70
2023/12/15 13:02:56;;;;;;;8.17;5.43;;;7.00;99.90;;;;;;5067949;28;20232;-70